createdAt,value
2022-12-06T00:00:44.107Z,25.60
2022-12-06T00:01:47.192Z,27.50
2022-12-06T00:02:50.205Z,23.65
2022-12-06T00:03:55.413Z,24.27
2022-12-06T00:04:58.343Z,22.65
2022-12-06T00:06:06.986Z,23.67
2022-12-06T00:07:11.796Z,19.95
2022-12-06T00:08:14.989Z,25.27
2022-12-06T00:09:25.032Z,25.37
2022-12-06T00:10:27.949Z,25.20
2022-12-06T00:11:33.258Z,22.48
2022-12-06T00:12:36.227Z,25.02
2022-12-06T00:13:40.316Z,23.55
2022-12-06T00:14:43.332Z,26.83
2022-12-06T00:15:46.135Z,25.15
2022-12-06T00:16:49.699Z,26.67
2022-12-06T00:17:52.939Z,26.17
2022-12-06T00:18:56.559Z,29.02
2022-12-06T00:19:59.862Z,27.10
2022-12-06T00:21:30.689Z,24.83
2022-12-06T00:22:33.694Z,25.98
2022-12-06T00:23:38.565Z,27.75
2022-12-06T00:24:41.880Z,26.65
2022-12-06T00:25:44.841Z,27.13
2022-12-06T00:26:49.714Z,27.92
2022-12-06T00:27:52.658Z,27.17
2022-12-06T00:28:58.042Z,28.42
2022-12-06T00:30:01.253Z,27.02
2022-12-06T00:31:07.776Z,25.42
2022-12-06T00:32:16.079Z,26.23
2022-12-06T00:34:25.028Z,19.15
2022-12-06T00:35:27.937Z,27.10
2022-12-06T00:36:37.048Z,23.77
2022-12-06T00:37:40.400Z,22.35
2022-12-06T00:38:43.567Z,25.05
2022-12-06T00:39:46.570Z,22.87
2022-12-06T00:40:49.523Z,17.87
2022-12-06T00:41:56.092Z,18.62
2022-12-06T00:42:58.975Z,21.70
2022-12-06T00:44:05.164Z,21.85
2022-12-06T00:45:08.993Z,18.60
2022-12-06T00:46:17.811Z,18.87
2022-12-06T00:47:20.790Z,18.58
2022-12-06T00:48:24.302Z,17.80
2022-12-06T00:49:27.235Z,17.00
2022-12-06T00:50:30.216Z,22.42
2022-12-06T00:51:34.750Z,15.48
2022-12-06T00:52:37.625Z,17.37
2022-12-06T00:53:40.830Z,18.52
2022-12-06T00:54:43.715Z,19.05
2022-12-06T00:55:47.478Z,19.77
2022-12-06T00:56:50.327Z,20.08
2022-12-06T00:57:53.490Z,21.77
2022-12-06T00:58:56.854Z,20.35
2022-12-06T01:00:00.024Z,22.05
2022-12-06T01:01:12.929Z,17.80
2022-12-06T01:02:16.017Z,17.48
2022-12-06T01:03:19.413Z,20.12
2022-12-06T01:04:22.575Z,18.33
2022-12-06T01:05:25.547Z,22.83
2022-12-06T01:06:31.515Z,23.62
2022-12-06T01:07:34.435Z,25.27
2022-12-06T01:08:38.473Z,22.40
2022-12-06T01:09:42.784Z,26.23
2022-12-06T01:10:55.775Z,23.30
2022-12-06T01:11:59.147Z,24.60
2022-12-06T01:13:02.177Z,23.95
2022-12-06T01:14:05.176Z,23.75
2022-12-06T01:15:09.025Z,23.65
2022-12-06T01:16:15.249Z,23.12
2022-12-06T01:17:18.281Z,25.08
2022-12-06T01:18:22.083Z,29.30
2022-12-06T01:19:24.988Z,27.90
2022-12-06T01:20:28.191Z,24.08
2022-12-06T01:21:31.704Z,26.52
2022-12-06T01:22:35.238Z,26.83
2022-12-06T01:23:38.506Z,28.25
2022-12-06T01:24:41.692Z,23.62
2022-12-06T01:25:52.254Z,25.10
2022-12-06T01:26:55.504Z,23.98
2022-12-06T01:27:58.547Z,28.75
2022-12-06T01:29:02.837Z,21.40
2022-12-06T01:30:06.770Z,24.42
2022-12-06T01:31:09.732Z,27.80
2022-12-06T01:32:12.840Z,22.45
2022-12-06T01:33:15.801Z,21.83
2022-12-06T01:34:18.685Z,19.45
2022-12-06T01:35:21.703Z,23.10
2022-12-06T01:36:26.662Z,23.55
2022-12-06T01:37:29.830Z,19.50
2022-12-06T01:38:33.160Z,20.23
2022-12-06T01:39:36.150Z,21.58
2022-12-06T01:40:41.079Z,22.08
2022-12-06T01:41:44.435Z,21.02
2022-12-06T01:42:47.320Z,22.60
2022-12-06T01:43:51.613Z,18.65
2022-12-06T01:44:56.590Z,21.45
2022-12-06T01:46:06.078Z,22.02
2022-12-06T01:47:19.186Z,20.23
2022-12-06T01:48:25.596Z,22.15
2022-12-06T01:49:35.351Z,17.40
2022-12-06T01:50:40.455Z,18.40
2022-12-06T01:51:55.504Z,19.23
2022-12-06T01:53:09.005Z,18.73
2022-12-06T01:54:15.306Z,18.33
2022-12-06T01:55:21.532Z,20.23
2022-12-06T01:56:24.743Z,19.37
2022-12-06T01:57:28.344Z,17.37
2022-12-06T01:58:37.213Z,18.67
2022-12-06T01:59:40.736Z,20.95
2022-12-06T02:00:44.216Z,19.80
2022-12-06T02:01:48.025Z,20.12
2022-12-06T02:02:51.407Z,19.05
2022-12-06T02:03:56.967Z,20.35
2022-12-06T02:05:02.085Z,17.58
2022-12-06T02:06:08.773Z,19.95
2022-12-06T02:07:12.856Z,20.20
2022-12-06T02:08:17.292Z,18.60
2022-12-06T02:09:21.458Z,20.35
2022-12-06T02:10:24.476Z,19.02
2022-12-06T02:11:30.772Z,20.45
2022-12-06T02:12:37.990Z,18.62
2022-12-06T02:13:41.795Z,18.87
2022-12-06T02:14:49.748Z,20.45
2022-12-06T02:15:58.814Z,16.52
2022-12-06T02:17:21.256Z,15.02
2022-12-06T02:18:35.457Z,21.58
2022-12-06T02:19:56.944Z,19.87
2022-12-06T02:21:13.375Z,21.08
2022-12-06T02:22:21.909Z,18.05
2022-12-06T02:23:36.882Z,18.33
2022-12-06T02:24:52.509Z,16.42
2022-12-06T02:26:29.181Z,18.48
2022-12-06T02:27:53.935Z,15.60
2022-12-06T02:29:21.653Z,18.20
2022-12-06T02:30:40.569Z,20.33
2022-12-06T02:31:52.294Z,19.15
2022-12-06T02:34:18.873Z,17.30
2022-12-06T02:35:31.458Z,18.23
2022-12-06T02:37:15.418Z,17.45
2022-12-06T02:38:31.256Z,17.08
2022-12-06T02:39:41.475Z,15.45
2022-12-06T02:40:50.719Z,16.40
2022-12-06T02:42:20.817Z,15.77
2022-12-06T02:43:32.595Z,18.33
2022-12-06T02:44:44.757Z,17.70
2022-12-06T02:45:55.313Z,13.98
2022-12-06T02:47:01.409Z,13.20
2022-12-06T02:48:06.524Z,12.18
2022-12-06T02:49:12.942Z,14.85
2022-12-06T02:50:23.158Z,13.95
2022-12-06T02:51:28.315Z,13.35
2022-12-06T02:52:32.576Z,15.15
2022-12-06T02:53:39.578Z,13.57
2022-12-06T02:54:45.863Z,11.48
2022-12-06T02:55:51.702Z,10.70
2022-12-06T02:56:54.707Z,11.07
2022-12-06T02:57:58.175Z,11.40
2022-12-06T02:59:01.925Z,10.20
2022-12-06T03:00:31.077Z,11.55
2022-12-06T03:01:41.943Z,9.05
2022-12-06T03:02:45.244Z,9.23
2022-12-06T03:03:56.960Z,9.98
2022-12-06T03:06:43.963Z,11.30
2022-12-06T03:07:53.406Z,10.57
2022-12-06T03:09:23.273Z,9.75
2022-12-06T03:10:49.556Z,11.15
2022-12-06T03:11:57.425Z,6.22
2022-12-06T03:13:21.941Z,8.15
2022-12-06T03:14:27.779Z,9.05
2022-12-06T03:15:55.689Z,7.85
2022-12-06T03:17:30.773Z,8.35
2022-12-06T03:19:12.712Z,11.02
2022-12-06T03:20:43.172Z,7.15
2022-12-06T03:22:09.540Z,9.68
2022-12-06T03:23:19.061Z,7.15
2022-12-06T03:24:24.439Z,9.25
2022-12-06T03:25:28.481Z,9.27
2022-12-06T03:26:34.472Z,7.85
2022-12-06T03:27:41.301Z,7.55
2022-12-06T03:28:47.456Z,6.72
2022-12-06T03:29:55.696Z,8.52
2022-12-06T03:31:03.429Z,8.00
2022-12-06T03:32:08.430Z,10.45
2022-12-06T03:33:16.048Z,8.35
2022-12-06T03:34:30.464Z,9.50
2022-12-06T03:35:35.162Z,11.57
2022-12-06T03:36:40.584Z,9.20
2022-12-06T03:37:48.313Z,10.02
2022-12-06T03:39:11.226Z,8.68
2022-12-06T03:40:26.864Z,7.78
2022-12-06T03:41:34.956Z,8.32
2022-12-06T03:42:38.153Z,7.62
2022-12-06T03:43:40.865Z,7.35
2022-12-06T03:44:43.513Z,8.73
2022-12-06T03:46:15.287Z,8.43
2022-12-06T03:47:29.440Z,7.37
2022-12-06T03:48:38.793Z,9.38
2022-12-06T03:49:46.525Z,7.87
2022-12-06T03:51:11.912Z,7.55
2022-12-06T03:52:14.736Z,9.23
2022-12-06T03:53:18.950Z,7.30
2022-12-06T03:54:21.804Z,6.85
2022-12-06T03:55:24.572Z,9.85
2022-12-06T03:56:27.817Z,8.88
2022-12-06T03:57:30.423Z,8.48
2022-12-06T03:58:33.102Z,8.73
2022-12-06T03:59:35.974Z,8.75
2022-12-06T04:00:39.299Z,7.80
2022-12-06T04:01:41.992Z,6.75
2022-12-06T04:02:44.971Z,8.02
2022-12-06T04:03:48.834Z,9.65
2022-12-06T04:04:51.468Z,8.85
2022-12-06T04:05:54.084Z,8.65
2022-12-06T04:06:56.766Z,7.28
2022-12-06T04:07:59.507Z,8.05
2022-12-06T04:09:20.698Z,8.95
2022-12-06T04:10:25.217Z,8.95
2022-12-06T04:11:27.694Z,8.20
2022-12-06T04:12:51.222Z,8.65
2022-12-06T04:13:53.810Z,7.47
2022-12-06T04:14:56.416Z,8.10
2022-12-06T04:16:01.349Z,8.23
2022-12-06T04:17:23.017Z,7.50
2022-12-06T04:18:28.297Z,10.13
2022-12-06T04:19:31.012Z,9.35
2022-12-06T04:20:54.011Z,9.25
2022-12-06T04:22:15.290Z,8.45
2022-12-06T04:23:19.177Z,10.38
2022-12-06T04:24:21.812Z,8.70
2022-12-06T04:25:24.616Z,8.95
2022-12-06T04:26:31.250Z,8.15
2022-12-06T04:27:52.700Z,10.27
2022-12-06T04:29:13.861Z,9.70
2022-12-06T04:30:35.127Z,8.88
2022-12-06T04:31:57.898Z,9.63
2022-12-06T04:33:18.890Z,8.43
2022-12-06T04:34:40.579Z,9.07
2022-12-06T04:36:01.663Z,10.82
2022-12-06T04:37:24.049Z,10.02
2022-12-06T04:38:45.097Z,9.43
2022-12-06T04:39:47.938Z,9.73
2022-12-06T04:40:50.530Z,8.40
2022-12-06T04:42:11.813Z,8.30
2022-12-06T04:43:33.090Z,8.65
2022-12-06T04:44:35.969Z,9.90
2022-12-06T04:45:38.650Z,10.02
2022-12-06T04:46:41.601Z,9.10
2022-12-06T04:47:44.531Z,8.88
2022-12-06T04:48:47.253Z,8.63
2022-12-06T04:49:50.130Z,8.52
2022-12-06T04:50:52.821Z,9.38
2022-12-06T04:51:55.849Z,9.70
2022-12-06T04:52:58.414Z,7.35
2022-12-06T04:54:04.291Z,9.90
2022-12-06T04:55:11.143Z,12.00
2022-12-06T04:56:13.929Z,9.90
2022-12-06T04:57:17.415Z,7.18
2022-12-06T04:58:20.292Z,11.23
2022-12-06T04:59:24.256Z,10.15
2022-12-06T05:00:26.916Z,9.65
2022-12-06T05:01:30.291Z,8.98
2022-12-06T05:02:32.901Z,10.18
2022-12-06T05:03:43.912Z,9.48
2022-12-06T05:05:49.936Z,9.23
2022-12-06T05:06:52.707Z,8.20
2022-12-06T05:07:55.522Z,8.75
2022-12-06T05:08:59.231Z,9.55
2022-12-06T05:10:02.679Z,8.65
2022-12-06T05:11:06.319Z,8.52
2022-12-06T05:12:09.068Z,8.63
2022-12-06T05:13:11.671Z,9.02
2022-12-06T05:14:18.077Z,8.68
2022-12-06T05:15:20.777Z,7.07
2022-12-06T05:16:24.395Z,10.75
2022-12-06T05:17:27.163Z,7.03
2022-12-06T05:18:30.897Z,8.23
2022-12-06T05:19:33.707Z,8.45
2022-12-06T05:20:37.246Z,9.70
2022-12-06T05:21:40.336Z,15.13
2022-12-06T05:22:43.143Z,10.68
2022-12-06T05:23:46.364Z,8.10
2022-12-06T05:24:48.840Z,10.07
2022-12-06T05:25:51.455Z,9.07
2022-12-06T05:26:54.272Z,8.80
2022-12-06T05:27:57.293Z,8.93
2022-12-06T05:29:00.020Z,8.68
2022-12-06T05:30:02.783Z,7.65
2022-12-06T05:31:06.009Z,10.43
2022-12-06T05:32:08.735Z,7.50
2022-12-06T05:33:11.405Z,8.93
2022-12-06T05:34:16.327Z,7.85
2022-12-06T05:35:18.921Z,7.65
2022-12-06T05:36:24.594Z,8.73
2022-12-06T05:37:27.208Z,7.20
2022-12-06T05:38:32.625Z,7.55
2022-12-06T05:39:35.451Z,9.20
2022-12-06T05:40:40.975Z,8.60
2022-12-06T05:41:43.723Z,7.80
2022-12-06T05:42:46.336Z,6.65
2022-12-06T05:43:49.471Z,7.72
2022-12-06T05:44:52.093Z,9.30
2022-12-06T05:45:54.967Z,7.62
2022-12-06T05:46:57.604Z,7.05
2022-12-06T05:48:00.344Z,7.12
2022-12-06T05:49:03.616Z,6.57
2022-12-06T05:50:06.682Z,8.10
2022-12-06T05:51:09.192Z,8.80
2022-12-06T05:52:12.089Z,8.73
2022-12-06T05:53:15.105Z,7.78
2022-12-06T05:54:18.892Z,9.25
2022-12-06T05:55:21.808Z,9.93
2022-12-06T05:56:24.591Z,8.23
2022-12-06T05:57:31.282Z,8.38
2022-12-06T05:58:35.031Z,8.85
2022-12-06T05:59:37.751Z,10.38
2022-12-06T06:00:40.456Z,12.07
2022-12-06T06:01:43.268Z,11.05
2022-12-06T06:02:46.441Z,11.12
2022-12-06T06:03:49.332Z,11.73
2022-12-06T06:04:57.131Z,11.77
2022-12-06T06:06:01.019Z,11.00
2022-12-06T06:07:07.124Z,8.82
2022-12-06T06:08:10.033Z,8.90
2022-12-06T06:09:12.754Z,9.70
2022-12-06T06:10:16.442Z,6.80
2022-12-06T06:11:19.144Z,9.80
2022-12-06T06:12:22.193Z,8.68
2022-12-06T06:13:25.601Z,10.32
2022-12-06T06:14:28.466Z,11.07
2022-12-06T06:15:31.408Z,13.27
2022-12-06T06:16:34.456Z,14.35
2022-12-06T06:17:41.459Z,13.52
2022-12-06T06:18:44.144Z,13.00
2022-12-06T06:19:51.290Z,12.43
2022-12-06T06:20:59.578Z,12.50
2022-12-06T06:22:02.200Z,10.85
2022-12-06T06:23:04.829Z,12.77
2022-12-06T06:24:07.637Z,15.25
2022-12-06T06:25:10.819Z,13.57
2022-12-06T06:26:17.222Z,12.20
2022-12-06T06:27:20.009Z,12.90
2022-12-06T06:28:22.911Z,13.18
2022-12-06T06:29:25.674Z,12.20
2022-12-06T06:30:28.739Z,13.40
2022-12-06T06:31:31.664Z,12.55
2022-12-06T06:32:34.445Z,32.58
2022-12-06T06:33:37.072Z,15.85
2022-12-06T06:34:39.663Z,14.02
2022-12-06T06:35:43.277Z,11.82
2022-12-06T06:36:46.264Z,22.52
2022-12-06T06:37:52.307Z,18.00
2022-12-06T06:38:55.226Z,23.70
2022-12-06T06:39:58.193Z,23.87
2022-12-06T06:41:05.697Z,14.10
2022-12-06T06:42:08.359Z,110.57
2022-12-06T06:43:20.734Z,40.63
2022-12-06T06:44:23.519Z,47.45
2022-12-06T06:45:28.993Z,41.58
2022-12-06T06:46:32.547Z,84.25
2022-12-06T06:47:35.241Z,40.17
2022-12-06T06:48:39.528Z,78.90
2022-12-06T06:49:42.346Z,21.62
2022-12-06T06:50:45.066Z,22.48
2022-12-06T06:51:47.921Z,22.58
2022-12-06T06:52:50.626Z,29.77
2022-12-06T06:53:53.280Z,18.10
2022-12-06T06:54:56.141Z,9.80
2022-12-06T06:55:58.777Z,13.27
2022-12-06T06:57:03.155Z,47.40
2022-12-06T06:58:06.351Z,56.63
2022-12-06T06:59:08.975Z,29.27
2022-12-06T07:00:12.684Z,9.80
2022-12-06T07:01:18.868Z,13.43
2022-12-06T07:02:25.259Z,18.02
2022-12-06T07:03:29.227Z,9.60
2022-12-06T07:04:33.869Z,8.57
2022-12-06T07:05:36.453Z,8.25
2022-12-06T07:06:39.172Z,10.30
2022-12-06T07:07:41.725Z,9.57
2022-12-06T07:08:45.250Z,9.80
2022-12-06T07:09:48.387Z,8.52
2022-12-06T07:10:51.795Z,8.65
2022-12-06T07:11:54.629Z,11.18
2022-12-06T07:12:57.365Z,10.13
2022-12-06T07:14:00.963Z,9.07
2022-12-06T07:15:04.372Z,9.30
2022-12-06T07:16:09.103Z,10.13
2022-12-06T07:17:11.944Z,11.93
2022-12-06T07:18:17.211Z,9.77
2022-12-06T07:19:20.460Z,9.77
2022-12-06T07:20:23.073Z,10.75
2022-12-06T07:21:25.890Z,8.93
2022-12-06T07:22:30.167Z,8.13
2022-12-06T07:23:35.506Z,9.88
2022-12-06T07:24:42.164Z,7.47
2022-12-06T07:25:46.405Z,7.45
2022-12-06T07:26:49.839Z,8.95
2022-12-06T07:27:52.500Z,9.02
2022-12-06T07:28:56.803Z,7.35
2022-12-06T07:29:59.876Z,7.87
2022-12-06T07:31:21.755Z,7.32
2022-12-06T07:32:26.641Z,7.45
2022-12-06T07:33:29.393Z,10.35
2022-12-06T07:34:32.053Z,7.93
2022-12-06T07:36:10.374Z,6.68
2022-12-06T07:36:57.387Z,7.82
2022-12-06T07:38:01.938Z,7.20
2022-12-06T07:39:07.855Z,9.43
2022-12-06T07:40:16.778Z,13.02
2022-12-06T07:41:44.520Z,12.27
2022-12-06T07:43:06.547Z,12.77
2022-12-06T07:44:29.593Z,11.12
2022-12-06T07:45:36.254Z,10.93
2022-12-06T07:46:42.178Z,10.32
2022-12-06T07:47:45.371Z,10.10
2022-12-06T07:48:48.026Z,10.57
2022-12-06T07:49:54.012Z,8.98
2022-12-06T07:50:56.745Z,8.40
2022-12-06T07:51:59.731Z,12.00
2022-12-06T07:53:02.491Z,10.00
2022-12-06T07:54:05.702Z,10.35
2022-12-06T07:55:14.324Z,12.52
2022-12-06T07:56:17.030Z,10.05
2022-12-06T07:57:22.002Z,11.43
2022-12-06T07:58:24.557Z,11.10
2022-12-06T07:59:27.515Z,10.13
2022-12-06T08:00:31.009Z,10.13
2022-12-06T08:01:33.662Z,12.80
2022-12-06T08:02:36.273Z,8.15
2022-12-06T08:03:38.829Z,9.20
2022-12-06T08:04:41.901Z,8.93
2022-12-06T08:05:53.924Z,7.68
2022-12-06T08:06:57.869Z,5.82
2022-12-06T08:08:00.831Z,4.97
2022-12-06T08:09:04.076Z,6.55
2022-12-06T08:10:07.743Z,7.18
2022-12-06T08:11:14.151Z,8.93
2022-12-06T08:12:16.845Z,7.78
2022-12-06T08:13:23.166Z,9.02
2022-12-06T08:14:26.171Z,7.53
2022-12-06T08:15:28.785Z,8.93
2022-12-06T08:16:31.532Z,7.18
2022-12-06T08:17:40.644Z,8.75
2022-12-06T08:18:43.799Z,7.85
2022-12-06T08:19:47.168Z,6.50
2022-12-06T08:20:50.602Z,7.53
2022-12-06T08:21:53.416Z,6.95
2022-12-06T08:22:56.216Z,5.37
2022-12-06T08:23:59.066Z,8.00
2022-12-06T08:25:01.965Z,9.32
2022-12-06T08:26:08.294Z,6.72
2022-12-06T08:27:11.012Z,8.75
2022-12-06T08:28:13.995Z,5.85
2022-12-06T08:29:17.101Z,7.47
2022-12-06T08:30:20.031Z,7.22
2022-12-06T08:31:24.521Z,5.72
2022-12-06T08:32:27.413Z,7.97
2022-12-06T08:33:32.570Z,6.03
2022-12-06T08:34:35.304Z,6.15
2022-12-06T08:35:37.921Z,5.97
2022-12-06T08:36:41.361Z,4.78
2022-12-06T08:37:44.125Z,5.87
2022-12-06T08:38:47.880Z,6.20
2022-12-06T08:39:50.670Z,5.70
2022-12-06T08:40:53.449Z,6.18
2022-12-06T08:41:56.309Z,5.10
2022-12-06T08:42:59.092Z,5.55
2022-12-06T08:44:02.695Z,5.90
2022-12-06T08:45:06.081Z,5.85
2022-12-06T08:46:08.821Z,4.93
2022-12-06T08:47:11.573Z,5.35
2022-12-06T08:48:14.381Z,5.07
2022-12-06T08:49:17.783Z,4.95
2022-12-06T08:50:21.575Z,5.10
2022-12-06T08:51:24.717Z,4.35
2022-12-06T08:52:27.456Z,4.57
2022-12-06T08:53:30.204Z,3.80
2022-12-06T08:54:34.789Z,3.42
2022-12-06T08:55:37.430Z,3.55
2022-12-06T08:56:40.101Z,4.90
2022-12-06T08:57:42.843Z,3.83
2022-12-06T08:58:45.587Z,2.83
2022-12-06T08:59:48.344Z,4.80
2022-12-06T09:00:50.964Z,3.28
2022-12-06T09:01:53.848Z,4.87
2022-12-06T09:02:56.683Z,2.67
2022-12-06T09:04:00.472Z,2.87
2022-12-06T09:05:03.307Z,2.67
2022-12-06T09:06:06.613Z,3.58
2022-12-06T09:07:11.827Z,2.83
2022-12-06T09:08:14.963Z,3.00
2022-12-06T09:09:18.488Z,4.65
2022-12-06T09:10:21.273Z,2.42
2022-12-06T09:11:24.511Z,2.17
2022-12-06T09:12:27.236Z,1.87
2022-12-06T09:13:30.025Z,1.98
2022-12-06T09:14:32.700Z,2.35
2022-12-06T09:15:35.425Z,1.90
2022-12-06T09:16:38.248Z,2.50
2022-12-06T09:17:40.842Z,1.48
2022-12-06T09:18:44.953Z,2.92
2022-12-06T09:19:48.025Z,1.35
2022-12-06T09:20:50.986Z,1.15
2022-12-06T09:21:53.808Z,1.23
2022-12-06T09:22:57.889Z,3.42
2022-12-06T09:24:00.788Z,1.65
2022-12-06T09:25:03.646Z,1.40
2022-12-06T09:26:07.410Z,1.55
2022-12-06T09:27:10.275Z,1.17
2022-12-06T09:28:13.765Z,2.70
2022-12-06T09:29:17.750Z,1.37
2022-12-06T09:30:20.802Z,1.50
2022-12-06T09:31:24.494Z,2.00
2022-12-06T09:32:27.364Z,1.92
2022-12-06T09:33:30.117Z,1.27
2022-12-06T09:34:32.767Z,1.62
2022-12-06T09:35:36.115Z,1.20
2022-12-06T09:36:52.777Z,0.88
2022-12-06T09:37:55.904Z,1.20
2022-12-06T09:39:06.891Z,1.30
2022-12-06T09:40:20.602Z,1.15
2022-12-06T09:41:26.327Z,1.12
2022-12-06T09:43:08.763Z,2.03
2022-12-06T09:44:26.852Z,1.62
2022-12-06T09:45:46.790Z,1.33
2022-12-06T09:47:28.538Z,1.80
2022-12-06T09:48:44.275Z,1.00
2022-12-06T09:50:24.558Z,1.20
2022-12-06T09:51:54.631Z,0.80
2022-12-06T09:53:18.421Z,1.33
2022-12-06T09:54:39.166Z,1.77
2022-12-06T09:55:47.952Z,0.93
2022-12-06T09:57:08.605Z,1.35
2022-12-06T09:58:23.376Z,1.10
2022-12-06T09:59:55.221Z,0.95
2022-12-06T10:01:25.682Z,1.00
2022-12-06T10:02:34.423Z,1.95
2022-12-06T10:03:43.132Z,1.55
2022-12-06T10:04:51.251Z,1.08
2022-12-06T10:06:07.494Z,1.15
2022-12-06T10:07:27.701Z,1.40
2022-12-06T10:08:42.589Z,1.40
2022-12-06T10:10:10.993Z,3.03
2022-12-06T10:11:33.444Z,0.90
2022-12-06T10:12:38.996Z,3.25
2022-12-06T10:13:53.895Z,2.00
2022-12-06T10:15:14.212Z,2.78
2022-12-06T10:16:45.126Z,1.20
2022-12-06T10:18:15.228Z,1.52
2022-12-06T10:19:54.805Z,1.48
2022-12-06T10:21:09.503Z,1.15
2022-12-06T10:22:30.364Z,4.05
2022-12-06T10:23:58.692Z,1.10
2022-12-06T10:25:23.951Z,1.20
2022-12-06T10:26:50.737Z,1.05
2022-12-06T10:28:34.019Z,1.50
2022-12-06T10:30:04.622Z,1.20
2022-12-06T10:31:43.704Z,1.77
2022-12-06T10:33:13.983Z,1.73
2022-12-06T10:35:08.850Z,1.42
2022-12-06T10:36:16.752Z,0.95
2022-12-06T10:37:44.140Z,0.80
2022-12-06T10:38:57.345Z,1.33
2022-12-06T10:40:22.274Z,1.35
2022-12-06T10:41:34.424Z,1.70
2022-12-06T10:42:43.151Z,0.70
2022-12-06T10:44:04.626Z,0.88
2022-12-06T10:45:47.270Z,1.25
2022-12-06T10:47:13.159Z,1.48
2022-12-06T10:48:24.713Z,1.45
2022-12-06T10:49:33.765Z,0.90
2022-12-06T10:50:41.574Z,3.10
2022-12-06T10:51:53.993Z,0.98
2022-12-06T10:53:04.613Z,1.67
2022-12-06T10:54:22.378Z,2.03
2022-12-06T10:55:44.455Z,1.48
2022-12-06T10:56:50.125Z,2.03
2022-12-06T10:58:06.882Z,1.35
2022-12-06T10:59:27.764Z,1.87
2022-12-06T11:00:37.980Z,1.37
2022-12-06T11:01:43.781Z,1.55
2022-12-06T11:03:19.755Z,1.52
2022-12-06T11:04:49.144Z,1.62
2022-12-06T11:06:01.756Z,1.75
2022-12-06T11:07:20.046Z,1.58
2022-12-06T11:08:27.986Z,1.83
2022-12-06T11:09:39.023Z,1.73
2022-12-06T11:10:46.001Z,2.50
2022-12-06T11:11:50.283Z,2.17
2022-12-06T11:13:10.097Z,2.60
2022-12-06T11:14:27.158Z,1.67
2022-12-06T11:15:39.058Z,1.73
2022-12-06T11:16:55.388Z,1.48
2022-12-06T11:18:27.782Z,1.62
2022-12-06T11:21:02.389Z,1.55
2022-12-06T11:22:34.452Z,1.98
2022-12-06T11:24:06.913Z,1.62
2022-12-06T11:25:09.491Z,2.35
2022-12-06T11:26:36.020Z,1.42
2022-12-06T11:27:47.813Z,2.10
2022-12-06T11:30:19.852Z,1.60
2022-12-06T11:31:38.124Z,1.45
2022-12-06T11:32:41.874Z,1.65
2022-12-06T11:33:46.564Z,1.30
2022-12-06T11:34:56.092Z,1.70
2022-12-06T11:36:02.768Z,1.30
2022-12-06T11:37:07.237Z,2.95
2022-12-06T11:38:12.722Z,1.80
2022-12-06T11:39:16.352Z,1.37
2022-12-06T11:40:33.415Z,1.35
2022-12-06T11:41:37.641Z,3.10
2022-12-06T11:42:40.338Z,1.37
2022-12-06T11:43:43.137Z,1.40
2022-12-06T11:44:57.769Z,2.85
2022-12-06T11:46:02.809Z,1.20
2022-12-06T11:47:07.163Z,1.35
2022-12-06T11:48:21.150Z,1.20
2022-12-06T11:49:40.537Z,1.40
2022-12-06T11:50:44.791Z,1.98
2022-12-06T11:51:47.494Z,0.93
2022-12-06T11:53:05.320Z,4.30
2022-12-06T11:54:34.467Z,2.08
2022-12-06T11:55:42.636Z,1.20
2022-12-06T11:56:46.566Z,1.08
2022-12-06T11:57:59.507Z,1.05
2022-12-06T11:59:28.891Z,1.30
2022-12-06T12:00:32.015Z,1.37
2022-12-06T12:01:46.951Z,1.23
2022-12-06T12:02:52.789Z,1.50
2022-12-06T12:03:55.516Z,1.42
2022-12-06T12:05:14.361Z,1.37
2022-12-06T12:06:21.833Z,1.50
2022-12-06T12:07:25.050Z,1.10
2022-12-06T12:08:32.801Z,1.73
2022-12-06T12:09:47.139Z,1.40
2022-12-06T12:11:01.456Z,1.02
2022-12-06T12:12:19.856Z,1.20
2022-12-06T12:13:42.398Z,1.40
2022-12-06T12:14:51.347Z,1.00
2022-12-06T12:15:54.444Z,2.50
2022-12-06T12:17:01.728Z,1.23
2022-12-06T12:18:06.344Z,1.42
2022-12-06T12:19:27.421Z,1.10
2022-12-06T12:20:45.583Z,1.27
2022-12-06T12:21:54.557Z,1.52
2022-12-06T12:23:18.571Z,1.30
2022-12-06T12:25:17.274Z,0.80
2022-12-06T12:26:08.364Z,1.65
2022-12-06T12:27:46.385Z,1.37
2022-12-06T12:29:22.508Z,1.92
2022-12-06T12:30:37.005Z,1.77
2022-12-06T12:31:55.001Z,1.60
2022-12-06T12:33:10.222Z,1.52
2022-12-06T12:34:18.544Z,2.42
2022-12-06T12:35:21.476Z,2.70
2022-12-06T12:36:29.393Z,2.70
2022-12-06T12:37:32.100Z,1.83
2022-12-06T12:38:43.503Z,1.77
2022-12-06T12:41:03.514Z,2.83
2022-12-06T12:42:33.182Z,3.55
2022-12-06T12:43:36.507Z,1.52
2022-12-06T12:44:40.022Z,2.30
2022-12-06T12:46:04.337Z,3.53
2022-12-06T12:47:19.013Z,2.30
2022-12-06T12:48:25.638Z,1.95
2022-12-06T12:49:34.953Z,2.97
2022-12-06T12:50:37.967Z,1.90
2022-12-06T12:51:46.434Z,3.12
2022-12-06T12:52:52.055Z,2.72
2022-12-06T12:53:58.206Z,3.97
2022-12-06T12:55:14.836Z,2.37
2022-12-06T12:56:21.967Z,2.30
2022-12-06T12:57:24.736Z,5.28
2022-12-06T12:58:31.628Z,2.22
2022-12-06T12:59:40.675Z,2.40
2022-12-06T13:00:48.385Z,2.55
2022-12-06T13:02:00.440Z,1.95
2022-12-06T13:03:49.539Z,1.92
2022-12-06T13:04:42.704Z,1.90
2022-12-06T13:05:49.392Z,1.95
2022-12-06T13:07:03.297Z,2.95
2022-12-06T13:08:15.512Z,1.58
2022-12-06T13:09:53.032Z,1.52
2022-12-06T13:10:59.797Z,2.20
2022-12-06T13:12:11.373Z,2.25
2022-12-06T13:14:48.952Z,2.00
2022-12-06T13:15:54.466Z,2.10
2022-12-06T13:17:01.519Z,1.52
2022-12-06T13:18:25.835Z,2.05
2022-12-06T13:19:48.756Z,3.12
2022-12-06T13:21:01.177Z,1.50
2022-12-06T13:22:06.030Z,1.90
2022-12-06T13:23:14.167Z,2.28
2022-12-06T13:24:27.637Z,2.78
2022-12-06T13:25:30.411Z,1.35
2022-12-06T13:26:38.697Z,3.17
2022-12-06T13:27:46.207Z,2.70
2022-12-06T13:28:54.042Z,5.07
2022-12-06T13:30:22.800Z,2.17
2022-12-06T13:31:31.360Z,1.75
2022-12-06T13:32:42.127Z,1.30
2022-12-06T13:33:51.240Z,1.73
2022-12-06T13:34:59.575Z,2.58
2022-12-06T13:36:07.707Z,2.50
2022-12-06T13:37:44.026Z,2.55
2022-12-06T13:38:47.582Z,2.65
2022-12-06T13:39:53.669Z,2.33
2022-12-06T13:41:46.074Z,2.42
2022-12-06T13:42:49.302Z,2.62
2022-12-06T13:43:52.067Z,1.95
2022-12-06T13:45:00.808Z,3.33
2022-12-06T13:46:09.551Z,1.92
2022-12-06T13:47:27.511Z,2.12
2022-12-06T13:48:47.904Z,1.60
2022-12-06T13:49:50.537Z,1.23
2022-12-06T13:50:56.666Z,1.85
2022-12-06T13:52:00.466Z,3.12
2022-12-06T13:53:03.784Z,2.25
2022-12-06T13:54:06.654Z,1.25
2022-12-06T13:55:24.502Z,2.53
2022-12-06T13:56:30.843Z,2.58
2022-12-06T13:57:33.811Z,2.22
2022-12-06T13:58:42.251Z,1.90
2022-12-06T13:59:45.217Z,1.85
2022-12-06T14:00:48.287Z,2.37
2022-12-06T14:01:53.082Z,2.92
2022-12-06T14:02:59.528Z,2.22
2022-12-06T14:04:04.889Z,1.75
2022-12-06T14:05:46.193Z,2.15
2022-12-06T14:06:48.956Z,1.85
2022-12-06T14:07:58.278Z,1.75
2022-12-06T14:09:02.095Z,1.37
2022-12-06T14:10:13.532Z,1.40
2022-12-06T14:12:25.152Z,2.10
2022-12-06T14:13:27.868Z,2.20
2022-12-06T14:14:30.658Z,1.67
2022-12-06T14:15:36.304Z,2.08
2022-12-06T14:16:42.119Z,2.12
2022-12-06T14:18:04.363Z,1.40
2022-12-06T14:19:23.908Z,2.55
2022-12-06T14:20:30.463Z,2.45
2022-12-06T14:21:39.437Z,1.60
2022-12-06T14:22:49.465Z,2.42
2022-12-06T14:23:52.184Z,2.78
2022-12-06T14:25:01.883Z,4.05
2022-12-06T14:26:11.827Z,2.37
2022-12-06T14:27:21.484Z,1.33
2022-12-06T14:28:24.556Z,3.37
2022-12-06T14:29:27.140Z,1.90
2022-12-06T14:30:30.192Z,2.60
2022-12-06T14:31:36.097Z,2.42
2022-12-06T14:32:42.264Z,3.85
2022-12-06T14:33:45.573Z,2.40
2022-12-06T14:34:48.786Z,3.58
2022-12-06T14:35:53.669Z,3.60
2022-12-06T14:36:57.752Z,3.10
2022-12-06T14:38:21.452Z,3.47
2022-12-06T14:39:27.109Z,2.53
2022-12-06T14:40:58.818Z,2.08
2022-12-06T14:42:23.659Z,3.83
2022-12-06T14:43:28.854Z,3.45
2022-12-06T14:44:32.759Z,3.65
2022-12-06T14:45:36.886Z,4.45
2022-12-06T14:46:40.224Z,3.50
2022-12-06T14:47:44.930Z,2.92
2022-12-06T14:49:06.889Z,3.62
2022-12-06T14:51:36.420Z,3.05
2022-12-06T14:53:14.052Z,3.00
2022-12-06T14:54:43.235Z,5.70
2022-12-06T14:56:02.270Z,3.65
2022-12-06T14:57:05.164Z,4.78
2022-12-06T14:58:17.268Z,4.25
2022-12-06T14:59:47.451Z,6.50
2022-12-06T15:00:54.793Z,7.72
2022-12-06T15:01:58.836Z,5.30
2022-12-06T15:03:29.324Z,4.00
2022-12-06T15:04:36.671Z,4.55
2022-12-06T15:05:45.940Z,3.65
2022-12-06T15:06:56.813Z,4.40
2022-12-06T15:07:59.921Z,3.33
2022-12-06T15:09:02.726Z,3.92
2022-12-06T15:10:30.002Z,4.87
2022-12-06T15:11:54.862Z,4.97
2022-12-06T15:13:14.628Z,3.65
2022-12-06T15:14:28.309Z,6.12
2022-12-06T15:15:42.487Z,4.00
2022-12-06T15:16:56.248Z,4.45
2022-12-06T15:18:30.157Z,5.65
2022-12-06T15:19:52.988Z,3.58